createdAt,value
2022-12-22T00:02:10.620Z,14.48
2022-12-22T00:04:58.930Z,16.63
2022-12-22T00:07:45.855Z,15.45
2022-12-22T00:10:32.936Z,16.40
2022-12-22T00:13:19.972Z,14.85
2022-12-22T00:16:06.916Z,16.13
2022-12-22T00:18:54.149Z,14.02
2022-12-22T00:21:41.092Z,15.52
2022-12-22T00:24:28.936Z,13.00
2022-12-22T00:27:15.856Z,14.98
2022-12-22T00:30:04.187Z,16.13
2022-12-22T00:32:56.941Z,15.23
2022-12-22T00:35:45.947Z,15.85
2022-12-22T00:38:41.595Z,13.60
2022-12-22T00:41:28.518Z,12.20
2022-12-22T00:44:15.532Z,13.70
2022-12-22T00:47:05.769Z,16.40
2022-12-22T00:49:56.096Z,14.13
2022-12-22T00:52:44.185Z,14.30
2022-12-22T00:55:36.982Z,16.67
2022-12-22T00:58:26.853Z,14.35
2022-12-22T01:01:13.852Z,13.52
2022-12-22T01:04:00.814Z,15.43
2022-12-22T01:06:50.936Z,14.43
2022-12-22T01:09:38.405Z,13.10
2022-12-22T01:12:39.722Z,14.65
2022-12-22T01:15:33.390Z,15.48
2022-12-22T01:18:20.410Z,15.75
2022-12-22T01:21:07.487Z,15.38
2022-12-22T01:23:54.474Z,16.27
2022-12-22T01:26:41.799Z,15.77
2022-12-22T01:29:28.786Z,14.10
2022-12-22T01:32:15.913Z,14.13
2022-12-22T01:35:03.187Z,15.13
2022-12-22T01:37:50.106Z,13.45
2022-12-22T01:40:40.236Z,14.20
2022-12-22T01:43:44.073Z,14.75
2022-12-22T01:46:53.379Z,14.05
2022-12-22T01:49:53.539Z,14.80
2022-12-22T01:52:45.316Z,14.30
2022-12-22T01:55:35.303Z,14.90
2022-12-22T01:58:22.381Z,15.10
2022-12-22T02:01:09.484Z,12.75
2022-12-22T02:03:56.501Z,14.27
2022-12-22T02:06:59.748Z,12.88
2022-12-22T02:10:10.104Z,12.80
2022-12-22T02:13:18.303Z,15.57
2022-12-22T02:16:30.027Z,16.33
2022-12-22T02:19:44.379Z,13.02
2022-12-22T02:23:02.983Z,14.23
2022-12-22T02:25:59.596Z,14.45
2022-12-22T02:28:46.747Z,14.10
2022-12-22T02:31:33.769Z,15.85
2022-12-22T02:34:20.753Z,14.07
2022-12-22T02:37:34.464Z,13.85
2022-12-22T02:40:41.364Z,15.50
2022-12-22T02:43:56.958Z,15.60
2022-12-22T02:47:18.955Z,14.18
2022-12-22T02:50:20.358Z,14.50
2022-12-22T02:53:08.242Z,12.88
2022-12-22T02:55:55.267Z,15.80
2022-12-22T02:58:42.424Z,13.85
2022-12-22T03:01:29.662Z,13.38
2022-12-22T03:04:16.708Z,12.77
2022-12-22T03:07:03.627Z,14.40
2022-12-22T03:09:50.569Z,12.20
2022-12-22T03:12:37.482Z,12.75
2022-12-22T03:15:24.633Z,12.32
2022-12-22T03:18:11.583Z,13.95
2022-12-22T03:20:58.501Z,13.52
2022-12-22T03:23:45.425Z,14.75
2022-12-22T03:26:12.458Z,12.10
2022-12-22T03:28:39.491Z,16.08
2022-12-22T03:31:07.178Z,15.50
2022-12-22T03:33:34.308Z,11.20
2022-12-22T03:36:02.129Z,13.90
2022-12-22T03:38:29.814Z,15.13
2022-12-22T03:40:57.088Z,14.13
2022-12-22T03:43:44.330Z,13.60
2022-12-22T03:46:21.929Z,12.55
2022-12-22T03:49:08.854Z,15.00
2022-12-22T03:51:38.205Z,14.95
2022-12-22T03:54:05.341Z,14.30
2022-12-22T03:56:32.711Z,14.18
2022-12-22T03:59:00.156Z,14.05
2022-12-22T04:01:27.355Z,13.05
2022-12-22T04:03:54.554Z,13.43
2022-12-22T04:06:21.917Z,11.77
2022-12-22T04:08:48.994Z,13.18
2022-12-22T04:11:37.373Z,13.90
2022-12-22T04:14:04.897Z,15.23
2022-12-22T04:16:32.501Z,13.40
2022-12-22T04:18:59.791Z,14.35
2022-12-22T04:21:27.332Z,14.32
2022-12-22T04:23:54.526Z,13.98
2022-12-22T04:26:25.577Z,14.57
2022-12-22T04:28:53.684Z,12.60
2022-12-22T04:31:22.439Z,14.02
2022-12-22T04:33:49.806Z,13.80
2022-12-22T04:36:17.261Z,13.82
2022-12-22T04:38:44.419Z,12.35
2022-12-22T04:41:11.680Z,14.85
2022-12-22T04:43:38.773Z,13.02
2022-12-22T04:46:06.241Z,12.07
2022-12-22T04:48:33.677Z,13.02
2022-12-22T04:51:01.404Z,12.75
2022-12-22T04:53:30.228Z,13.60
2022-12-22T04:56:00.855Z,12.90
2022-12-22T04:58:28.624Z,13.02
2022-12-22T05:00:56.161Z,14.40
2022-12-22T05:03:23.698Z,12.35
2022-12-22T05:05:51.085Z,11.27
2022-12-22T05:08:18.279Z,13.38
2022-12-22T05:10:46.874Z,12.88
2022-12-22T05:13:13.931Z,12.50
2022-12-22T05:15:41.075Z,13.18
2022-12-22T05:18:08.137Z,14.80
2022-12-22T05:20:36.159Z,13.93
2022-12-22T05:23:03.325Z,12.93
2022-12-22T05:25:35.045Z,14.02
2022-12-22T05:28:02.932Z,12.65
2022-12-22T05:30:30.125Z,14.32
2022-12-22T05:32:57.270Z,13.15
2022-12-22T05:35:24.349Z,14.30
2022-12-22T05:37:51.520Z,15.82
2022-12-22T05:40:18.634Z,16.50
2022-12-22T05:42:45.704Z,17.25
2022-12-22T05:45:18.164Z,16.60
2022-12-22T05:47:52.673Z,16.55
2022-12-22T05:50:22.618Z,15.68
2022-12-22T05:52:49.883Z,18.17
2022-12-22T05:55:17.683Z,17.42
2022-12-22T05:57:44.867Z,16.58
2022-12-22T06:00:14.891Z,15.82
2022-12-22T06:02:43.091Z,15.70
2022-12-22T06:05:12.327Z,18.48
2022-12-22T06:07:39.874Z,20.48
2022-12-22T06:10:12.465Z,17.55
2022-12-22T06:12:41.117Z,19.65
2022-12-22T06:15:10.753Z,18.42
2022-12-22T06:17:43.961Z,21.80
2022-12-22T06:20:13.088Z,20.85
2022-12-22T06:22:40.295Z,18.73
2022-12-22T06:25:10.801Z,17.38
2022-12-22T06:27:40.756Z,20.10
2022-12-22T06:30:08.675Z,20.17
2022-12-22T06:32:39.759Z,19.75
2022-12-22T06:35:09.884Z,22.15
2022-12-22T06:37:37.107Z,23.88
2022-12-22T06:40:04.655Z,22.27
2022-12-22T06:42:51.539Z,21.38
2022-12-22T06:45:18.706Z,20.02
2022-12-22T06:47:45.804Z,22.92
2022-12-22T06:50:12.894Z,21.40
2022-12-22T06:52:40.055Z,24.33
2022-12-22T06:55:07.452Z,24.13
2022-12-22T06:57:34.549Z,20.95
2022-12-22T07:00:01.790Z,20.60
2022-12-22T07:02:28.946Z,22.00
2022-12-22T07:04:56.149Z,24.08
2022-12-22T07:07:23.194Z,25.65
2022-12-22T07:09:50.286Z,24.25
2022-12-22T07:12:17.397Z,22.10
2022-12-22T07:14:44.415Z,25.15
2022-12-22T07:17:11.514Z,25.42
2022-12-22T07:19:38.673Z,24.02
2022-12-22T07:22:05.797Z,22.92
2022-12-22T07:24:33.310Z,22.77
2022-12-22T07:27:01.157Z,23.50
2022-12-22T07:29:28.224Z,25.67
2022-12-22T07:31:55.698Z,23.35
2022-12-22T07:34:22.749Z,24.08
2022-12-22T07:36:49.899Z,23.70
2022-12-22T07:39:16.951Z,25.65
2022-12-22T07:42:03.876Z,24.23
2022-12-22T07:44:30.916Z,22.65
2022-12-22T07:46:58.392Z,27.88
2022-12-22T07:49:45.545Z,23.77
2022-12-22T07:52:12.657Z,24.88
2022-12-22T07:54:42.013Z,25.70
2022-12-22T07:57:09.518Z,24.98
2022-12-22T07:59:36.567Z,28.42
2022-12-22T08:02:03.830Z,23.98
2022-12-22T08:04:31.015Z,27.40
2022-12-22T08:06:58.781Z,25.35
2022-12-22T08:09:25.866Z,24.85
2022-12-22T08:11:52.917Z,26.10
2022-12-22T08:14:19.983Z,25.50
2022-12-22T08:16:47.225Z,24.00
2022-12-22T08:19:14.480Z,26.33
2022-12-22T08:21:46.815Z,25.48
2022-12-22T08:24:19.103Z,24.83
2022-12-22T08:26:49.719Z,27.27
2022-12-22T08:29:23.083Z,26.30
2022-12-22T08:31:50.277Z,24.75
2022-12-22T08:34:17.542Z,23.40
2022-12-22T08:36:50.744Z,24.65
2022-12-22T08:39:21.444Z,27.15
2022-12-22T08:41:51.672Z,25.30
2022-12-22T08:44:30.211Z,24.67
2022-12-22T08:46:59.742Z,23.73
2022-12-22T08:49:27.406Z,26.57
2022-12-22T08:51:54.921Z,23.25
2022-12-22T08:54:22.457Z,25.73
2022-12-22T08:56:50.270Z,26.35
2022-12-22T08:59:17.729Z,27.75
2022-12-22T09:01:48.244Z,23.90
2022-12-22T09:04:18.250Z,24.60
2022-12-22T09:06:46.237Z,29.02
2022-12-22T09:09:14.490Z,26.92
2022-12-22T09:11:42.212Z,25.20
2022-12-22T09:14:11.958Z,26.58
2022-12-22T09:16:39.511Z,27.88
2022-12-22T09:19:07.289Z,24.80
2022-12-22T09:21:35.437Z,26.67
2022-12-22T09:24:04.613Z,29.48
2022-12-22T09:26:32.832Z,25.13
2022-12-22T09:29:00.013Z,25.80
2022-12-22T09:31:27.916Z,28.20
2022-12-22T09:33:55.271Z,29.08
2022-12-22T09:36:25.001Z,25.27
2022-12-22T09:38:52.576Z,27.80
2022-12-22T09:41:31.827Z,26.27
2022-12-22T09:44:23.326Z,23.92
2022-12-22T09:46:51.036Z,27.27
2022-12-22T09:49:19.856Z,26.80
2022-12-22T09:51:51.074Z,26.92
2022-12-22T09:54:18.297Z,26.60
2022-12-22T09:56:45.487Z,25.90
2022-12-22T09:59:15.453Z,26.50
2022-12-22T10:02:22.302Z,26.27
2022-12-22T10:05:20.875Z,26.80
2022-12-22T10:07:48.101Z,27.15
2022-12-22T10:10:28.567Z,27.63
2022-12-22T10:15:24.034Z,29.05
2022-12-22T10:17:53.550Z,25.05
2022-12-22T10:20:28.378Z,26.93
2022-12-22T10:23:07.053Z,25.45
2022-12-22T10:26:26.700Z,27.27
2022-12-22T10:31:18.867Z,25.67
2022-12-22T10:33:49.326Z,25.92
2022-12-22T10:36:26.876Z,27.90
2022-12-22T10:39:10.818Z,26.90
2022-12-22T10:41:42.290Z,27.88
2022-12-22T10:44:20.813Z,25.63
2022-12-22T10:46:51.419Z,26.05
2022-12-22T10:52:16.589Z,25.88
2022-12-22T10:54:45.291Z,27.63
2022-12-22T10:57:29.065Z,25.10
2022-12-22T11:00:21.424Z,27.15
2022-12-22T11:02:53.281Z,27.52
2022-12-22T11:05:20.754Z,29.83
2022-12-22T11:07:48.679Z,28.33
2022-12-22T11:10:27.280Z,27.73
2022-12-22T11:13:15.655Z,26.13
2022-12-22T11:16:17.180Z,29.38
2022-12-22T11:19:23.528Z,29.52
2022-12-22T11:22:07.534Z,26.90
2022-12-22T11:24:54.583Z,30.60
2022-12-22T11:27:46.089Z,25.80
2022-12-22T11:30:20.585Z,29.65
2022-12-22T11:33:16.060Z,29.63
2022-12-22T11:36:05.187Z,26.65
2022-12-22T11:38:51.425Z,28.23
2022-12-22T11:41:31.930Z,30.25
2022-12-22T11:44:34.844Z,30.00
2022-12-22T11:47:31.322Z,28.55
2022-12-22T11:51:01.888Z,30.27
2022-12-22T11:54:10.700Z,27.48
2022-12-22T11:56:50.970Z,27.27
2022-12-22T11:59:57.734Z,26.02
2022-12-22T12:02:59.354Z,24.17
2022-12-22T12:06:02.924Z,26.67
2022-12-22T12:08:59.715Z,30.10
2022-12-22T12:11:35.354Z,30.67
2022-12-22T12:14:32.957Z,27.88
2022-12-22T12:17:21.069Z,28.70
2022-12-22T12:20:27.859Z,28.88
2022-12-22T12:23:34.641Z,26.42
2022-12-22T12:26:24.774Z,26.35
2022-12-22T12:29:24.397Z,27.35
2022-12-22T12:32:05.769Z,30.20
2022-12-22T12:34:37.739Z,26.88
2022-12-22T12:37:29.644Z,28.08
2022-12-22T12:40:27.723Z,26.58
2022-12-22T12:42:56.189Z,27.67
2022-12-22T12:45:42.239Z,24.30
2022-12-22T12:48:36.922Z,26.83
2022-12-22T12:51:43.697Z,24.65
2022-12-22T12:54:42.861Z,24.25
2022-12-22T12:57:49.557Z,26.52
2022-12-22T13:00:48.737Z,25.90
2022-12-22T13:06:51.233Z,27.73
2022-12-22T13:09:49.760Z,23.48
2022-12-22T13:12:39.967Z,23.02
2022-12-22T13:15:28.108Z,25.42
2022-12-22T13:17:55.502Z,24.13
2022-12-22T13:20:34.971Z,26.38
2022-12-22T13:23:04.783Z,26.70
2022-12-22T13:25:51.547Z,22.55
2022-12-22T13:28:21.489Z,21.75
2022-12-22T13:31:01.707Z,23.83
2022-12-22T13:33:32.342Z,21.75
2022-12-22T13:36:00.052Z,22.52
2022-12-22T13:38:36.259Z,25.15
2022-12-22T13:41:13.230Z,22.83
2022-12-22T13:43:43.768Z,25.00
2022-12-22T13:46:11.291Z,23.77
2022-12-22T13:48:54.439Z,22.40
2022-12-22T13:51:30.099Z,23.25
2022-12-22T13:54:10.298Z,20.17
2022-12-22T13:56:46.235Z,24.63
2022-12-22T13:59:35.151Z,24.23
2022-12-22T14:02:17.715Z,24.00
2022-12-22T14:05:04.027Z,23.35
2022-12-22T14:07:31.544Z,23.48
2022-12-22T14:09:58.833Z,24.90
2022-12-22T14:12:30.317Z,27.42
2022-12-22T14:15:01.427Z,25.40
2022-12-22T14:17:32.793Z,30.02
2022-12-22T14:20:03.588Z,26.15
2022-12-22T14:22:43.082Z,26.48
2022-12-22T14:25:17.140Z,25.02
2022-12-22T14:27:50.805Z,28.05
2022-12-22T14:30:21.293Z,27.85
2022-12-22T14:32:55.094Z,24.98
2022-12-22T14:35:28.970Z,24.90
2022-12-22T14:38:23.865Z,27.73
2022-12-22T14:40:57.386Z,29.85
2022-12-22T14:43:31.597Z,29.40
2022-12-22T14:46:09.001Z,30.63
2022-12-22T14:48:45.485Z,30.42
2022-12-22T14:51:20.196Z,25.05
2022-12-22T14:53:52.972Z,25.85
2022-12-22T14:56:21.000Z,27.27
2022-12-22T14:58:49.457Z,24.35
2022-12-22T15:01:28.700Z,26.50
2022-12-22T15:04:05.532Z,26.85
2022-12-22T15:06:36.728Z,27.60
2022-12-22T15:10:03.795Z,24.75
2022-12-22T15:12:15.576Z,25.98
2022-12-22T15:14:42.885Z,26.48
2022-12-22T15:17:20.929Z,27.35
2022-12-22T15:19:48.738Z,25.42
2022-12-22T15:22:15.835Z,25.52
2022-12-22T15:24:43.055Z,22.13
2022-12-22T15:27:10.227Z,26.95
2022-12-22T15:29:37.361Z,24.58
2022-12-22T15:32:04.684Z,22.65
2022-12-22T15:34:32.791Z,25.92
2022-12-22T15:36:59.945Z,24.80
2022-12-22T15:39:26.999Z,24.33
2022-12-22T15:41:54.890Z,22.77
2022-12-22T15:44:22.699Z,22.88
2022-12-22T15:46:55.726Z,23.77
2022-12-22T15:49:25.671Z,22.67
2022-12-22T15:51:57.537Z,21.67
2022-12-22T15:54:28.024Z,23.17
2022-12-22T15:56:56.188Z,21.60
2022-12-22T15:59:27.235Z,22.17
2022-12-22T16:02:01.345Z,23.45
2022-12-22T16:04:29.345Z,24.38
2022-12-22T16:06:57.209Z,23.13
2022-12-22T16:09:27.762Z,22.73
2022-12-22T16:11:55.262Z,23.02
2022-12-22T16:14:23.376Z,22.23
2022-12-22T16:16:50.597Z,21.30
2022-12-22T16:19:18.854Z,23.40
2022-12-22T16:21:48.785Z,24.42
2022-12-22T16:24:30.603Z,20.00
2022-12-22T16:26:58.814Z,21.83
2022-12-22T16:29:29.845Z,20.77
2022-12-22T16:32:17.619Z,22.80
2022-12-22T16:34:45.287Z,23.05
2022-12-22T16:37:12.402Z,24.60
2022-12-22T16:39:39.527Z,23.23
2022-12-22T16:45:00.444Z,19.98
2022-12-22T16:47:31.720Z,20.88
2022-12-22T16:50:01.075Z,21.35
2022-12-22T16:52:38.863Z,25.33
2022-12-22T16:55:18.519Z,20.83
2022-12-22T16:57:45.591Z,20.50
2022-12-22T17:00:19.758Z,18.55
2022-12-22T17:02:51.600Z,19.67
2022-12-22T17:05:27.503Z,21.33
2022-12-22T17:07:56.460Z,20.92
2022-12-22T17:10:24.199Z,20.40
2022-12-22T17:12:54.859Z,20.02
2022-12-22T17:15:22.631Z,20.73
2022-12-22T17:17:50.067Z,22.52
2022-12-22T17:20:20.019Z,21.25
2022-12-22T17:22:52.885Z,20.58
2022-12-22T17:25:24.066Z,19.77
2022-12-22T17:27:51.427Z,18.83
2022-12-22T17:30:23.898Z,21.80
2022-12-22T17:32:54.465Z,21.45
2022-12-22T17:35:25.573Z,18.85
2022-12-22T17:37:53.512Z,19.92
2022-12-22T17:40:32.362Z,19.42
2022-12-22T17:42:59.640Z,19.33
2022-12-22T17:45:27.165Z,20.77
2022-12-22T17:47:54.287Z,20.55
2022-12-22T17:50:23.378Z,17.15
2022-12-22T17:52:50.592Z,19.40
2022-12-22T17:56:05.264Z,19.05
2022-12-22T17:58:15.630Z,18.77
2022-12-22T18:00:43.318Z,19.13
2022-12-22T18:03:15.299Z,18.92
2022-12-22T18:05:47.445Z,20.90
2022-12-22T18:08:20.676Z,17.65
2022-12-22T18:10:48.537Z,17.05
2022-12-22T18:13:21.593Z,19.33
2022-12-22T18:15:48.850Z,19.38
2022-12-22T18:18:18.344Z,18.45
2022-12-22T18:21:07.684Z,17.38
2022-12-22T18:23:34.726Z,17.85
2022-12-22T18:26:01.874Z,18.13
2022-12-22T18:28:28.981Z,17.65
2022-12-22T18:30:56.071Z,18.70
2022-12-22T18:33:23.200Z,17.77
2022-12-22T18:35:50.359Z,16.73
2022-12-22T18:38:32.472Z,17.13
2022-12-22T18:41:00.375Z,15.18
2022-12-22T18:43:27.589Z,17.25
2022-12-22T18:45:54.686Z,18.55
2022-12-22T18:48:21.739Z,18.48
2022-12-22T18:50:48.886Z,17.40
2022-12-22T18:53:23.153Z,16.92
2022-12-22T18:55:50.251Z,18.45
2022-12-22T18:58:17.328Z,18.42
2022-12-22T19:00:44.957Z,16.88
2022-12-22T19:03:22.257Z,17.35
2022-12-22T19:05:50.533Z,17.40
2022-12-22T19:08:25.584Z,16.30
2022-12-22T19:10:57.829Z,16.55
2022-12-22T19:13:34.292Z,15.35
2022-12-22T19:16:01.979Z,17.50
2022-12-22T19:18:29.463Z,15.07
2022-12-22T19:20:56.780Z,17.70
2022-12-22T19:23:26.120Z,15.77
2022-12-22T19:25:56.508Z,17.27
2022-12-22T19:28:33.066Z,16.08
2022-12-22T19:31:01.038Z,14.35
2022-12-22T19:33:38.258Z,17.80
2022-12-22T19:36:05.965Z,15.52
2022-12-22T19:38:35.588Z,17.33
2022-12-22T19:41:05.193Z,15.70
2022-12-22T19:43:33.688Z,14.80
2022-12-22T19:46:00.873Z,14.80
2022-12-22T19:48:28.059Z,14.95
2022-12-22T19:50:55.510Z,14.85
2022-12-22T19:53:22.841Z,17.52
2022-12-22T19:55:54.007Z,14.07
2022-12-22T19:58:35.577Z,16.35
2022-12-22T20:01:02.693Z,16.05
2022-12-22T20:03:29.758Z,12.82
2022-12-22T20:05:56.987Z,15.38
2022-12-22T20:08:24.060Z,13.27
2022-12-22T20:10:58.122Z,15.75
2022-12-22T20:13:26.575Z,13.65
2022-12-22T20:15:55.677Z,13.80
2022-12-22T20:18:24.999Z,14.98
2022-12-22T20:21:10.630Z,13.07
2022-12-22T20:23:39.408Z,12.63
2022-12-22T20:26:12.626Z,17.65
2022-12-22T20:28:40.544Z,17.58
2022-12-22T20:31:09.204Z,13.02
2022-12-22T20:33:36.282Z,14.50
2022-12-22T20:36:10.715Z,14.65
2022-12-22T20:38:41.673Z,12.95
2022-12-22T20:41:10.649Z,13.18
2022-12-22T20:43:38.949Z,12.98
2022-12-22T20:46:27.172Z,13.38
2022-12-22T20:49:02.673Z,13.43
2022-12-22T20:51:32.235Z,15.88
2022-12-22T20:53:59.659Z,12.67
2022-12-22T20:56:36.615Z,14.13
2022-12-22T20:59:18.048Z,14.35
2022-12-22T21:01:47.048Z,12.27
2022-12-22T21:04:15.192Z,12.43
2022-12-22T21:06:54.826Z,14.90
2022-12-22T21:09:22.474Z,12.73
2022-12-22T21:11:49.926Z,13.40
2022-12-22T21:14:17.352Z,16.23
2022-12-22T21:16:44.661Z,14.05
2022-12-22T21:19:19.906Z,12.82
2022-12-22T21:21:47.506Z,13.32
2022-12-22T21:24:14.804Z,12.18
2022-12-22T21:26:46.248Z,13.57
2022-12-22T21:29:20.903Z,13.65
2022-12-22T21:31:48.022Z,13.75
2022-12-22T21:34:15.147Z,16.92
2022-12-22T21:36:46.039Z,11.43
2022-12-22T21:39:33.483Z,13.85
2022-12-22T21:42:00.577Z,11.15
2022-12-22T21:44:29.244Z,13.55
2022-12-22T21:46:57.123Z,14.20
2022-12-22T21:49:27.939Z,12.65
2022-12-22T21:51:55.572Z,13.43
2022-12-22T21:54:24.810Z,13.57
2022-12-22T21:56:53.418Z,12.75
2022-12-22T21:59:21.300Z,13.35
2022-12-22T22:01:48.982Z,12.52
2022-12-22T22:04:16.134Z,13.95
2022-12-22T22:06:43.176Z,12.35
2022-12-22T22:09:10.328Z,12.38
2022-12-22T22:11:57.263Z,14.80
2022-12-22T22:14:25.475Z,13.82
2022-12-22T22:16:52.685Z,13.23
2022-12-22T22:19:19.798Z,12.77
2022-12-22T22:21:47.477Z,14.35
2022-12-22T22:24:14.625Z,14.82
2022-12-22T22:26:44.046Z,15.95
2022-12-22T22:29:11.161Z,12.00
2022-12-22T22:31:38.484Z,12.57
2022-12-22T22:34:05.705Z,12.63
2022-12-22T22:36:32.797Z,14.05
2022-12-22T22:38:59.818Z,14.73
2022-12-22T22:41:28.688Z,13.45
2022-12-22T22:43:55.808Z,14.45
2022-12-22T22:46:23.307Z,14.32
2022-12-22T22:48:50.647Z,15.20
2022-12-22T22:51:17.747Z,14.55
2022-12-22T22:53:44.908Z,12.43
2022-12-22T22:56:11.976Z,15.55
2022-12-22T22:58:39.055Z,14.90
2022-12-22T23:01:07.595Z,15.20
2022-12-22T23:03:36.014Z,13.98
2022-12-22T23:06:05.600Z,12.95
2022-12-22T23:08:33.664Z,14.05
2022-12-22T23:11:01.923Z,11.00
2022-12-22T23:13:29.500Z,12.98
2022-12-22T23:15:58.922Z,14.85
2022-12-22T23:18:26.666Z,13.25
2022-12-22T23:20:54.137Z,13.02
2022-12-22T23:23:21.288Z,13.30
2022-12-22T23:25:51.004Z,13.82
2022-12-22T23:28:18.947Z,13.43
2022-12-22T23:30:49.156Z,13.40
2022-12-22T23:33:16.837Z,11.40
2022-12-22T23:35:46.997Z,14.70
2022-12-22T23:38:15.631Z,14.80
2022-12-22T23:40:52.269Z,13.95
2022-12-22T23:43:19.814Z,14.23
2022-12-22T23:45:46.934Z,15.15
2022-12-22T23:48:14.059Z,14.65
2022-12-22T23:50:41.136Z,15.05
2022-12-22T23:53:08.209Z,14.77
2022-12-22T23:55:35.308Z,13.55
2022-12-22T23:58:02.347Z,12.80
